createdAt,value
2022-12-23T00:01:35.840Z,6.70
2022-12-23T00:04:03.086Z,6.70
2022-12-23T00:06:30.294Z,6.70
2022-12-23T00:08:59.969Z,6.60
2022-12-23T00:11:28.893Z,6.60
2022-12-23T00:14:21.127Z,6.60
2022-12-23T00:16:50.189Z,6.50
2022-12-23T00:19:17.468Z,6.50
2022-12-23T00:21:44.473Z,6.50
2022-12-23T00:24:12.355Z,6.40
2022-12-23T00:26:39.430Z,6.30
2022-12-23T00:29:07.067Z,6.30
2022-12-23T00:31:34.247Z,6.20
2022-12-23T00:34:01.213Z,6.20
2022-12-23T00:36:30.584Z,6.20
2022-12-23T00:39:17.770Z,6.10
2022-12-23T00:42:03.304Z,6.00
2022-12-23T00:44:30.463Z,5.90
2022-12-23T00:46:57.486Z,5.90
2022-12-23T00:49:42.934Z,5.90
2022-12-23T00:52:13.213Z,5.90
2022-12-23T00:54:40.745Z,5.90
2022-12-23T00:57:07.747Z,5.80
2022-12-23T00:59:34.779Z,5.70
2022-12-23T01:02:20.733Z,5.70
2022-12-23T01:05:06.391Z,5.60
2022-12-23T01:07:33.469Z,5.70
2022-12-23T01:10:00.460Z,5.60
2022-12-23T01:12:28.061Z,5.60
2022-12-23T01:14:55.029Z,5.50
2022-12-23T01:17:22.236Z,5.50
2022-12-23T01:19:49.425Z,5.40
2022-12-23T01:22:16.549Z,5.50
2022-12-23T01:24:43.500Z,5.50
2022-12-23T01:27:10.510Z,5.40
2022-12-23T01:29:37.792Z,5.40
2022-12-23T01:32:04.899Z,5.40
2022-12-23T01:34:36.734Z,5.40
2022-12-23T01:37:04.867Z,5.40
2022-12-23T01:39:31.915Z,5.40
2022-12-23T01:42:17.691Z,5.40
2022-12-23T01:45:03.613Z,5.40
2022-12-23T01:47:39.074Z,5.30
2022-12-23T01:50:17.327Z,5.40
2022-12-23T01:53:12.002Z,5.30
2022-12-23T01:56:00.371Z,5.20
2022-12-23T01:59:01.184Z,5.20
2022-12-23T02:01:56.383Z,5.20
2022-12-23T02:04:25.507Z,5.20
2022-12-23T02:07:11.516Z,5.20
2022-12-23T02:09:40.603Z,5.20
2022-12-23T02:12:50.331Z,5.30
2022-12-23T02:15:36.086Z,5.30
2022-12-23T02:18:33.995Z,5.30
2022-12-23T02:21:39.125Z,5.30
2022-12-23T02:24:56.349Z,5.30
2022-12-23T02:27:28.727Z,5.30
2022-12-23T02:30:22.927Z,5.30
2022-12-23T02:33:25.042Z,5.20
2022-12-23T02:36:02.331Z,5.20
2022-12-23T02:38:55.036Z,5.20
2022-12-23T02:41:36.960Z,5.30
2022-12-23T02:44:13.393Z,5.30
2022-12-23T02:46:51.999Z,5.20
2022-12-23T02:49:32.467Z,5.30
2022-12-23T02:52:05.152Z,5.30
2022-12-23T02:54:38.802Z,5.20
2022-12-23T02:57:09.773Z,5.20
2022-12-23T02:59:41.730Z,5.20
2022-12-23T03:02:09.158Z,5.20
2022-12-23T03:04:40.506Z,5.10
2022-12-23T03:07:23.840Z,5.10
2022-12-23T03:10:13.469Z,5.10
2022-12-23T03:12:58.507Z,5.00
2022-12-23T03:15:39.184Z,5.00
2022-12-23T03:18:38.948Z,5.00
2022-12-23T03:21:31.740Z,4.90
2022-12-23T03:24:15.699Z,5.00
2022-12-23T03:27:05.694Z,5.00
2022-12-23T03:29:43.410Z,5.00
2022-12-23T03:32:13.974Z,5.00
2022-12-23T03:34:45.513Z,5.00
2022-12-23T03:37:14.630Z,5.10
2022-12-23T03:39:48.505Z,5.10
2022-12-23T03:42:28.529Z,5.20
2022-12-23T03:45:36.491Z,5.20
2022-12-23T03:47:54.896Z,5.30
2022-12-23T03:50:24.761Z,5.30
2022-12-23T03:52:56.197Z,5.30
2022-12-23T03:55:36.686Z,5.30
2022-12-23T03:58:31.024Z,5.20
2022-12-23T04:01:17.596Z,5.10
2022-12-23T04:03:53.978Z,5.00
2022-12-23T04:06:24.464Z,5.00
2022-12-23T04:08:52.630Z,5.00
2022-12-23T04:11:20.513Z,5.00
2022-12-23T04:13:48.825Z,5.00
2022-12-23T04:16:16.276Z,5.00
2022-12-23T04:18:43.368Z,5.00
2022-12-23T04:21:10.369Z,5.10
2022-12-23T04:23:37.486Z,5.10
2022-12-23T04:26:04.695Z,5.20
2022-12-23T04:28:31.759Z,5.20
2022-12-23T04:30:58.874Z,5.20
2022-12-23T04:33:25.913Z,5.10
2022-12-23T04:35:53.007Z,5.10
2022-12-23T04:38:20.144Z,5.20
2022-12-23T04:40:47.651Z,5.20
2022-12-23T04:43:15.068Z,5.10
2022-12-23T04:45:42.006Z,5.10
2022-12-23T04:48:09.523Z,5.10
2022-12-23T04:50:36.457Z,5.10
2022-12-23T04:53:03.527Z,5.10
2022-12-23T04:55:30.586Z,5.10
2022-12-23T04:57:57.694Z,5.10
2022-12-23T05:00:24.718Z,5.10
2022-12-23T05:02:51.849Z,5.00
2022-12-23T05:05:18.919Z,5.00
2022-12-23T05:07:49.060Z,5.00
2022-12-23T05:10:16.393Z,5.00
2022-12-23T05:12:43.367Z,5.00
2022-12-23T05:15:10.854Z,5.00
2022-12-23T05:17:37.959Z,5.00
2022-12-23T05:20:05.364Z,5.00
2022-12-23T05:22:32.433Z,5.00
2022-12-23T05:24:59.573Z,5.00
2022-12-23T05:27:26.504Z,5.00
2022-12-23T05:29:53.541Z,5.00
2022-12-23T05:32:20.647Z,5.00
2022-12-23T05:34:47.630Z,5.00
2022-12-23T05:37:14.717Z,5.00
2022-12-23T05:39:41.703Z,5.00
2022-12-23T05:42:08.938Z,5.00
2022-12-23T05:44:35.952Z,5.00
2022-12-23T05:47:02.909Z,5.00
2022-12-23T05:49:30.128Z,4.90
2022-12-23T05:51:57.099Z,4.90
2022-12-23T05:54:24.025Z,4.90
2022-12-23T05:56:51.065Z,4.90
2022-12-23T05:59:18.870Z,4.80
2022-12-23T06:01:45.933Z,4.80
2022-12-23T06:04:13.016Z,4.80
2022-12-23T06:06:40.248Z,4.80
2022-12-23T06:09:07.208Z,4.80
2022-12-23T06:11:34.126Z,4.80
2022-12-23T06:14:02.712Z,4.80
2022-12-23T06:16:29.863Z,4.80
2022-12-23T06:18:57.096Z,4.80
2022-12-23T06:21:25.608Z,4.80
2022-12-23T06:23:52.861Z,4.90
2022-12-23T06:26:20.032Z,4.90
2022-12-23T06:28:47.125Z,4.90
2022-12-23T06:31:14.187Z,4.90
2022-12-23T06:33:41.198Z,5.00
2022-12-23T06:36:08.831Z,5.00
2022-12-23T06:38:35.775Z,5.00
2022-12-23T06:41:02.816Z,5.00
2022-12-23T06:43:29.883Z,5.10
2022-12-23T06:45:57.019Z,5.10
2022-12-23T06:48:23.944Z,5.10
2022-12-23T06:50:50.865Z,5.20
2022-12-23T06:53:18.024Z,5.10
2022-12-23T06:55:45.079Z,5.10
2022-12-23T06:58:12.073Z,5.10
2022-12-23T07:00:39.126Z,5.10
2022-12-23T07:03:06.204Z,5.10
2022-12-23T07:05:37.726Z,5.10
2022-12-23T07:08:05.381Z,5.10
2022-12-23T07:10:33.542Z,5.00
2022-12-23T07:13:01.909Z,5.00
2022-12-23T07:15:28.940Z,5.10
2022-12-23T07:17:56.016Z,5.10
2022-12-23T07:20:23.071Z,5.10
2022-12-23T07:22:50.404Z,5.10
2022-12-23T07:25:17.401Z,5.10
2022-12-23T07:27:44.413Z,5.10
2022-12-23T07:30:11.776Z,5.10
2022-12-23T07:32:38.943Z,5.20
2022-12-23T07:35:06.383Z,5.10
2022-12-23T07:37:33.371Z,5.20
2022-12-23T07:40:06.466Z,5.20
2022-12-23T07:42:45.713Z,5.30
2022-12-23T07:45:13.481Z,5.40
2022-12-23T07:47:40.431Z,5.40
2022-12-23T07:50:07.993Z,5.50
2022-12-23T07:52:34.975Z,5.50
2022-12-23T07:55:01.991Z,5.40
2022-12-23T07:57:29.509Z,5.50
2022-12-23T07:59:57.144Z,5.60
2022-12-23T08:02:25.436Z,5.60
2022-12-23T08:04:52.732Z,5.70
2022-12-23T08:07:20.038Z,5.70
2022-12-23T08:09:47.044Z,5.60
2022-12-23T08:12:14.242Z,5.70
2022-12-23T08:14:41.221Z,5.80
2022-12-23T08:17:08.455Z,5.80
2022-12-23T08:19:35.645Z,5.90
2022-12-23T08:22:02.670Z,5.80
2022-12-23T08:24:29.717Z,5.70
2022-12-23T08:26:58.263Z,5.60
2022-12-23T08:29:25.330Z,5.60
2022-12-23T08:31:54.147Z,5.70
2022-12-23T08:34:21.167Z,5.60
2022-12-23T08:36:48.231Z,5.60
2022-12-23T08:39:15.605Z,5.50
2022-12-23T08:41:45.132Z,5.50
2022-12-23T08:44:12.740Z,5.50
2022-12-23T08:46:40.032Z,5.50
2022-12-23T08:49:08.232Z,5.50
2022-12-23T08:51:37.034Z,5.40
2022-12-23T08:54:04.622Z,5.40
2022-12-23T08:56:39.220Z,5.40
2022-12-23T08:59:07.105Z,5.40
2022-12-23T09:01:35.162Z,5.30
2022-12-23T09:04:06.787Z,5.40
2022-12-23T09:06:37.633Z,5.40
2022-12-23T09:09:05.657Z,5.40
2022-12-23T09:11:33.572Z,5.40
2022-12-23T09:14:02.155Z,5.60
2022-12-23T09:16:30.512Z,5.70
2022-12-23T09:18:58.326Z,5.90
2022-12-23T09:21:25.645Z,6.10
2022-12-23T09:23:52.878Z,6.30
2022-12-23T09:26:22.993Z,6.40
2022-12-23T09:28:50.507Z,6.50
2022-12-23T09:31:17.641Z,6.60
2022-12-23T09:33:48.117Z,6.70
2022-12-23T09:36:15.703Z,6.70
2022-12-23T09:38:42.832Z,6.60
2022-12-23T09:41:17.417Z,6.60
2022-12-23T09:43:47.179Z,6.50
2022-12-23T09:46:20.607Z,6.50
2022-12-23T09:49:23.625Z,6.40
2022-12-23T09:51:55.863Z,6.40
2022-12-23T09:54:31.305Z,6.30
2022-12-23T09:57:11.722Z,6.20
2022-12-23T09:59:50.294Z,6.30
2022-12-23T10:02:38.268Z,6.50
2022-12-23T10:05:22.474Z,6.60
2022-12-23T10:08:24.503Z,6.70
2022-12-23T10:10:56.596Z,6.80
2022-12-23T10:13:54.402Z,7.00
2022-12-23T10:16:26.401Z,7.20
2022-12-23T10:19:04.520Z,7.30
2022-12-23T10:21:51.701Z,7.50
2022-12-23T10:24:36.590Z,7.60
2022-12-23T10:27:13.724Z,7.60
2022-12-23T10:29:42.481Z,7.60
2022-12-23T10:32:41.623Z,7.70
2022-12-23T10:35:19.524Z,7.70
2022-12-23T10:38:03.052Z,7.70
2022-12-23T10:40:40.075Z,7.70
2022-12-23T10:43:26.808Z,7.80
2022-12-23T10:46:24.130Z,7.80
2022-12-23T10:49:02.147Z,7.80
2022-12-23T10:51:43.906Z,7.80
2022-12-23T10:54:18.539Z,7.80
2022-12-23T10:56:45.829Z,7.80
2022-12-23T10:59:16.091Z,7.80
2022-12-23T11:01:47.706Z,7.80
2022-12-23T11:04:18.466Z,7.80
2022-12-23T11:07:10.627Z,7.80
2022-12-23T11:09:45.103Z,7.80
2022-12-23T11:12:13.242Z,7.80
2022-12-23T11:14:57.726Z,7.80
2022-12-23T11:17:26.356Z,7.80
2022-12-23T11:20:11.353Z,7.80
2022-12-23T11:23:00.078Z,7.80
2022-12-23T11:25:43.412Z,7.80
2022-12-23T11:28:10.370Z,7.80
2022-12-23T11:31:12.036Z,7.90
2022-12-23T11:33:46.581Z,8.00
2022-12-23T11:36:13.555Z,8.00
2022-12-23T11:38:58.717Z,8.10
2022-12-23T11:41:29.779Z,8.00
2022-12-23T11:44:04.560Z,8.10
2022-12-23T11:46:34.293Z,8.10
2022-12-23T11:49:19.189Z,8.00
2022-12-23T11:52:06.398Z,8.00
2022-12-23T11:54:34.335Z,7.90
2022-12-23T11:57:05.370Z,7.90
2022-12-23T11:59:40.195Z,8.00
2022-12-23T12:02:32.637Z,8.00
2022-12-23T12:05:22.932Z,8.00
2022-12-23T12:07:51.943Z,8.00
2022-12-23T12:10:27.243Z,8.00
2022-12-23T12:12:58.245Z,7.90
2022-12-23T12:15:53.761Z,8.00
2022-12-23T12:18:22.200Z,8.10
2022-12-23T12:20:53.796Z,8.10
2022-12-23T12:23:32.698Z,8.10
2022-12-23T12:26:07.776Z,8.30
2022-12-23T12:28:41.707Z,8.40
2022-12-23T12:31:47.430Z,8.40
2022-12-23T12:34:14.365Z,8.40
2022-12-23T12:36:53.095Z,8.40
2022-12-23T12:39:36.083Z,8.30
2022-12-23T12:42:14.684Z,8.30
2022-12-23T12:45:19.446Z,8.30
2022-12-23T12:48:18.201Z,8.30
2022-12-23T12:50:58.150Z,8.30
2022-12-23T12:53:26.265Z,8.30
2022-12-23T12:56:15.996Z,8.30
2022-12-23T12:58:44.922Z,8.40
2022-12-23T13:01:18.198Z,8.50
2022-12-23T13:04:12.670Z,8.40
2022-12-23T13:06:53.390Z,8.50
2022-12-23T13:09:20.513Z,8.40
2022-12-23T13:12:15.721Z,8.50
2022-12-23T13:15:10.389Z,8.50
2022-12-23T13:17:45.250Z,8.50
2022-12-23T13:20:26.112Z,8.50
2022-12-23T13:23:06.367Z,8.40
2022-12-23T13:25:55.271Z,8.40
2022-12-23T13:28:34.267Z,8.50
2022-12-23T13:31:30.549Z,8.50
2022-12-23T13:34:19.942Z,8.50
2022-12-23T13:36:56.689Z,8.50
2022-12-23T13:39:49.902Z,8.50
2022-12-23T13:42:36.981Z,8.50
2022-12-23T13:45:06.427Z,8.50
2022-12-23T13:47:33.319Z,8.50
2022-12-23T13:50:23.487Z,8.50
2022-12-23T13:53:02.694Z,8.40
2022-12-23T13:55:32.754Z,8.40
2022-12-23T13:58:24.350Z,8.40
2022-12-23T14:01:18.890Z,8.40
2022-12-23T14:03:49.737Z,8.30
2022-12-23T14:06:24.310Z,8.30
2022-12-23T14:08:52.801Z,8.30
2022-12-23T14:11:26.415Z,8.30
2022-12-23T14:14:00.583Z,8.30
2022-12-23T14:16:51.948Z,8.20
2022-12-23T14:19:18.816Z,8.10
2022-12-23T14:22:11.643Z,7.90
2022-12-23T14:25:17.489Z,7.80
2022-12-23T14:27:56.604Z,7.70
2022-12-23T14:30:45.858Z,7.60
2022-12-23T14:33:19.138Z,7.60
2022-12-23T14:35:46.265Z,7.50
2022-12-23T14:38:16.370Z,7.50
2022-12-23T14:40:43.593Z,7.40
2022-12-23T14:43:22.790Z,7.40
2022-12-23T14:46:01.627Z,7.40
2022-12-23T14:48:34.818Z,7.40
2022-12-23T14:51:14.040Z,7.40
2022-12-23T14:53:53.849Z,7.30
2022-12-23T14:56:42.004Z,7.30
2022-12-23T14:59:48.270Z,7.40
2022-12-23T15:02:22.584Z,7.40
2022-12-23T15:04:58.013Z,7.40
2022-12-23T15:07:31.728Z,7.40
2022-12-23T15:10:01.900Z,7.40
2022-12-23T15:12:43.837Z,7.40
2022-12-23T15:15:24.172Z,7.40
2022-12-23T15:18:06.138Z,7.30
2022-12-23T15:20:35.286Z,7.30
2022-12-23T15:23:08.209Z,7.30
2022-12-23T15:25:47.698Z,7.30
2022-12-23T15:28:24.821Z,7.40
2022-12-23T15:30:54.983Z,7.40
2022-12-23T15:34:01.699Z,7.40
2022-12-23T15:36:13.274Z,7.40
2022-12-23T15:38:40.823Z,7.40
2022-12-23T15:41:17.360Z,7.40
2022-12-23T15:43:45.042Z,7.40
2022-12-23T15:46:26.837Z,7.30
2022-12-23T15:48:56.764Z,7.30
2022-12-23T15:54:43.549Z,7.20
2022-12-23T15:57:19.233Z,7.20
2022-12-23T15:59:46.638Z,7.10
2022-12-23T16:02:59.214Z,7.10
2022-12-23T16:05:13.415Z,7.10
2022-12-23T16:07:41.913Z,7.10
2022-12-23T16:10:21.529Z,7.00
2022-12-23T16:12:51.680Z,7.00
2022-12-23T16:15:29.212Z,7.00
2022-12-23T16:18:13.334Z,6.90
2022-12-23T16:20:45.129Z,6.90
2022-12-23T16:23:13.283Z,6.80
2022-12-23T16:25:44.212Z,6.70
2022-12-23T16:28:23.084Z,6.70
2022-12-23T16:30:54.500Z,6.60
2022-12-23T16:33:57.352Z,6.60
2022-12-23T16:36:27.567Z,6.60
2022-12-23T16:39:23.166Z,6.60
2022-12-23T16:41:51.008Z,6.60
2022-12-23T16:44:18.277Z,6.70
2022-12-23T16:46:49.544Z,6.70
2022-12-23T16:49:25.297Z,6.70
2022-12-23T16:51:55.195Z,6.70
2022-12-23T16:54:22.219Z,6.70
2022-12-23T16:56:50.208Z,6.70
2022-12-23T16:59:17.549Z,6.70
2022-12-23T17:01:49.198Z,6.70
2022-12-23T17:04:16.452Z,6.70
2022-12-23T17:06:43.611Z,6.60
2022-12-23T17:09:11.443Z,6.50
2022-12-23T17:11:47.681Z,6.50
2022-12-23T17:14:16.190Z,6.50
2022-12-23T17:16:44.553Z,6.40
2022-12-23T17:19:12.063Z,6.40
2022-12-23T17:21:40.375Z,6.30
2022-12-23T17:24:11.992Z,6.40
2022-12-23T17:26:38.987Z,6.40
2022-12-23T17:29:06.413Z,6.40
2022-12-23T17:31:34.315Z,6.40
2022-12-23T17:34:02.015Z,6.40
2022-12-23T17:36:29.723Z,6.40
2022-12-23T17:38:56.969Z,6.40
2022-12-23T17:41:29.994Z,6.40
2022-12-23T17:43:57.451Z,6.40
2022-12-23T17:46:25.704Z,6.30
2022-12-23T17:48:53.469Z,6.30
2022-12-23T17:51:22.881Z,6.20
2022-12-23T17:53:57.453Z,6.20
2022-12-23T17:56:27.266Z,6.20
2022-12-23T17:58:54.487Z,6.20
2022-12-23T18:01:25.903Z,6.10
2022-12-23T18:03:53.741Z,6.10
2022-12-23T18:06:22.559Z,6.10
2022-12-23T18:08:50.021Z,6.10
2022-12-23T18:11:38.304Z,6.10
2022-12-23T18:14:05.612Z,6.10
2022-12-23T18:16:32.667Z,6.10
2022-12-23T18:18:59.692Z,6.10
2022-12-23T18:21:28.624Z,6.10
2022-12-23T18:23:58.628Z,6.20
2022-12-23T18:26:26.054Z,6.20
2022-12-23T18:28:54.322Z,6.20
2022-12-23T18:31:27.344Z,6.20
2022-12-23T18:33:54.927Z,6.20
2022-12-23T18:36:25.468Z,6.20
2022-12-23T18:38:53.598Z,6.30
2022-12-23T18:41:21.991Z,6.30
2022-12-23T18:43:49.381Z,6.20
2022-12-23T18:46:17.007Z,6.30
2022-12-23T18:48:44.315Z,6.30
2022-12-23T18:51:18.315Z,6.30
2022-12-23T18:53:46.670Z,6.30
2022-12-23T18:56:21.443Z,6.30
2022-12-23T18:58:48.823Z,6.30
2022-12-23T19:01:18.625Z,6.20
2022-12-23T19:03:46.478Z,6.20
2022-12-23T19:06:14.882Z,6.30
2022-12-23T19:08:43.095Z,6.30
2022-12-23T19:11:15.884Z,6.30
2022-12-23T19:13:43.002Z,6.20
2022-12-23T19:16:19.479Z,6.20
2022-12-23T19:18:48.475Z,6.20
2022-12-23T19:21:16.557Z,6.20
2022-12-23T19:23:43.825Z,6.20
2022-12-23T19:26:12.447Z,6.20
2022-12-23T19:28:43.652Z,6.20
2022-12-23T19:31:13.431Z,6.20
2022-12-23T19:33:44.138Z,6.20
2022-12-23T19:36:20.382Z,6.20
2022-12-23T19:38:47.575Z,6.20
2022-12-23T19:41:15.154Z,6.20
2022-12-23T19:43:45.159Z,6.20
2022-12-23T19:46:14.048Z,6.20
2022-12-23T19:48:41.053Z,6.20
2022-12-23T19:51:13.822Z,6.20
2022-12-23T19:53:41.938Z,6.10
2022-12-23T19:56:13.550Z,6.10
2022-12-23T19:58:42.920Z,6.10
2022-12-23T20:01:14.274Z,6.10
2022-12-23T20:03:42.449Z,6.10
2022-12-23T20:06:18.123Z,6.00
2022-12-23T20:08:45.209Z,6.00
2022-12-23T20:11:14.936Z,6.00
2022-12-23T20:13:42.231Z,6.00
2022-12-23T20:16:10.456Z,6.00
2022-12-23T20:18:38.408Z,6.00
2022-12-23T20:21:07.026Z,6.00
2022-12-23T20:23:35.057Z,6.00
2022-12-23T20:26:02.321Z,5.90
2022-12-23T20:28:29.523Z,6.00
2022-12-23T20:31:22.741Z,6.00
2022-12-23T20:33:51.461Z,6.00
2022-12-23T20:36:20.901Z,6.00
2022-12-23T20:38:48.305Z,5.90
2022-12-23T20:41:17.924Z,6.00
2022-12-23T20:43:56.815Z,6.00
2022-12-23T20:46:30.161Z,6.00
2022-12-23T20:48:57.341Z,6.00
2022-12-23T20:51:26.069Z,5.90
2022-12-23T20:53:55.296Z,5.90
2022-12-23T20:56:27.447Z,5.80
2022-12-23T20:58:55.172Z,5.80
2022-12-23T21:01:24.645Z,5.80
2022-12-23T21:03:52.122Z,5.80
2022-12-23T21:06:19.592Z,5.80
2022-12-23T21:08:46.960Z,5.80
2022-12-23T21:11:14.327Z,5.80
2022-12-23T21:13:41.476Z,5.80
2022-12-23T21:16:10.976Z,5.80
2022-12-23T21:18:43.046Z,5.70
2022-12-23T21:21:10.890Z,5.80
2022-12-23T21:23:39.867Z,5.80
2022-12-23T21:26:09.590Z,5.80
2022-12-23T21:28:37.758Z,5.80
2022-12-23T21:31:05.912Z,5.80
2022-12-23T21:33:36.187Z,5.90
2022-12-23T21:36:03.961Z,5.90
2022-12-23T21:38:33.398Z,6.00
2022-12-23T21:41:06.157Z,6.00
2022-12-23T21:43:33.296Z,6.00
2022-12-23T21:46:02.531Z,6.00
2022-12-23T21:48:33.012Z,6.00
2022-12-23T21:51:04.539Z,6.10
2022-12-23T21:53:33.080Z,6.10
2022-12-23T21:56:01.952Z,6.20
2022-12-23T21:58:29.071Z,6.20
2022-12-23T22:00:56.351Z,6.20
2022-12-23T22:03:23.569Z,6.20
2022-12-23T22:05:50.692Z,6.20
2022-12-23T22:08:17.943Z,6.20
2022-12-23T22:10:45.690Z,6.20
2022-12-23T22:13:12.763Z,6.20
2022-12-23T22:15:43.564Z,6.20
2022-12-23T22:18:10.876Z,6.20
2022-12-23T22:20:45.818Z,6.20
2022-12-23T22:23:13.245Z,6.20
2022-12-23T22:25:40.235Z,6.20
2022-12-23T22:28:07.238Z,6.10
2022-12-23T22:30:34.160Z,6.20
2022-12-23T22:33:01.194Z,6.10
2022-12-23T22:35:28.161Z,6.10
2022-12-23T22:37:55.266Z,6.10
2022-12-23T22:40:22.201Z,6.10
2022-12-23T22:42:49.107Z,6.10
2022-12-23T22:45:16.209Z,6.10
2022-12-23T22:47:43.259Z,6.00
2022-12-23T22:50:10.638Z,5.90
2022-12-23T22:52:37.721Z,5.90
2022-12-23T22:55:05.817Z,5.90
2022-12-23T22:57:33.910Z,6.00
2022-12-23T23:00:06.210Z,6.00
2022-12-23T23:02:38.561Z,5.90
2022-12-23T23:05:12.473Z,5.90
2022-12-23T23:07:40.052Z,5.90
2022-12-23T23:10:07.846Z,6.00
2022-12-23T23:12:34.876Z,5.90
2022-12-23T23:15:01.920Z,5.90
2022-12-23T23:17:29.260Z,5.80
2022-12-23T23:19:56.577Z,5.80
2022-12-23T23:22:24.589Z,5.80
2022-12-23T23:24:51.717Z,5.80
2022-12-23T23:27:19.148Z,5.80
2022-12-23T23:29:46.228Z,5.80
2022-12-23T23:32:13.186Z,5.80
2022-12-23T23:34:40.684Z,5.80
2022-12-23T23:37:07.694Z,5.80
2022-12-23T23:39:34.795Z,5.90
2022-12-23T23:42:01.809Z,5.90
2022-12-23T23:44:28.813Z,5.90
2022-12-23T23:46:55.818Z,6.00
2022-12-23T23:49:23.290Z,6.00
2022-12-23T23:51:50.601Z,6.00
2022-12-23T23:54:17.756Z,6.00
2022-12-23T23:56:44.808Z,6.00
2022-12-23T23:59:11.925Z,6.00
